createdAt,value
2019-04-26T00:02:25.189Z,1.20
2019-04-26T00:07:30.810Z,0.93
2019-04-26T00:12:45.120Z,1.03
2019-04-26T00:17:54.734Z,0.88
2019-04-26T00:23:00.241Z,0.80
2019-04-26T00:28:05.686Z,0.80
2019-04-26T00:33:12.398Z,0.80
2019-04-26T00:38:18.292Z,0.70
2019-04-26T00:43:24.972Z,0.80
2019-04-26T00:48:32.577Z,0.90
2019-04-26T00:53:39.694Z,0.90
2019-04-26T00:58:45.341Z,0.90
2019-04-26T01:03:50.924Z,0.98
2019-04-26T01:08:56.233Z,1.00
2019-04-26T01:14:01.714Z,1.10
2019-04-26T01:19:08.900Z,0.80
2019-04-26T01:24:18.253Z,0.90
2019-04-26T01:29:26.382Z,0.90
2019-04-26T01:34:33.613Z,0.90
2019-04-26T01:39:41.782Z,1.30
2019-04-26T01:45:01.203Z,0.90
2019-04-26T01:50:07.761Z,1.63
2019-04-26T01:55:13.851Z,0.90
2019-04-26T02:00:28.073Z,1.10
2019-04-26T02:05:33.691Z,1.10
2019-04-26T02:10:39.302Z,1.77
2019-04-26T02:15:44.742Z,2.43
2019-04-26T02:20:57.542Z,1.20
2019-04-26T02:26:12.001Z,1.00
2019-04-26T02:31:17.728Z,1.63
2019-04-26T02:36:25.362Z,1.10
2019-04-26T02:41:33.493Z,0.87
2019-04-26T02:46:50.822Z,1.10
2019-04-26T02:52:03.924Z,1.03
2019-04-26T02:57:09.502Z,1.23
2019-04-26T03:02:21.913Z,1.20
2019-04-26T03:07:44.213Z,1.53
2019-04-26T03:12:52.850Z,1.80
2019-04-26T03:18:11.053Z,1.03
2019-04-26T03:23:41.811Z,1.20
2019-04-26T03:28:44.483Z,1.00
2019-04-26T03:34:01.788Z,1.20
2019-04-26T03:39:23.032Z,0.50
2019-04-26T03:44:38.996Z,1.30
2019-04-26T03:49:57.912Z,0.40
2019-04-26T03:55:08.743Z,0.90
2019-04-26T04:00:26.203Z,1.20
2019-04-26T04:05:44.196Z,0.97
2019-04-26T04:10:55.841Z,1.20
2019-04-26T04:16:01.965Z,1.27
2019-04-26T04:21:22.433Z,1.20
2019-04-26T04:26:39.603Z,1.50
2019-04-26T04:31:49.344Z,1.03
2019-04-26T04:36:57.873Z,1.00
2019-04-26T04:42:22.444Z,1.47
2019-04-26T04:47:37.164Z,1.20
2019-04-26T04:52:51.765Z,1.00
2019-04-26T04:58:06.093Z,1.30
2019-04-26T05:03:28.623Z,0.70
2019-04-26T05:08:51.182Z,1.23
2019-04-26T05:14:04.423Z,1.07
2019-04-26T05:19:27.097Z,1.13
2019-04-26T05:24:40.461Z,1.33
2019-04-26T05:29:56.155Z,1.10
2019-04-26T05:35:12.518Z,1.70
2019-04-26T05:40:35.273Z,0.90
2019-04-26T05:46:04.153Z,1.33
2019-04-26T05:51:34.236Z,1.40
2019-04-26T05:57:02.715Z,1.70
2019-04-26T06:02:32.041Z,1.80
2019-04-26T06:07:58.528Z,1.33
2019-04-26T06:13:28.003Z,1.50
2019-04-26T06:18:47.873Z,1.13
2019-04-26T06:24:07.052Z,1.22
2019-04-26T06:29:20.230Z,1.57
2019-04-26T06:34:39.344Z,1.97
2019-04-26T06:40:02.853Z,1.23
2019-04-26T06:45:30.983Z,1.57
2019-04-26T06:50:44.372Z,1.10
2019-04-26T06:56:03.014Z,1.20
2019-04-26T07:01:25.946Z,2.13
2019-04-26T07:06:38.810Z,1.60
2019-04-26T07:12:05.774Z,1.77
2019-04-26T07:17:17.672Z,1.10
2019-04-26T07:22:41.370Z,2.07
2019-04-26T07:28:03.850Z,1.97
2019-04-26T07:33:19.978Z,1.20
2019-04-26T07:38:54.636Z,2.10
2019-04-26T07:44:20.901Z,1.80
2019-04-26T07:49:53.552Z,2.70
2019-04-26T07:55:26.433Z,2.03
2019-04-26T08:00:44.990Z,3.20
2019-04-26T08:06:01.581Z,1.40
2019-04-26T08:11:12.951Z,2.30
2019-04-26T08:16:30.540Z,1.93
2019-04-26T08:21:42.609Z,1.90
2019-04-26T08:26:55.084Z,1.70
2019-04-26T08:32:05.413Z,2.10
2019-04-26T08:37:19.669Z,2.20
2019-04-26T08:42:30.533Z,1.73
2019-04-26T08:47:45.977Z,1.50
2019-04-26T08:52:57.876Z,1.73
2019-04-26T08:58:08.160Z,2.07
2019-04-26T09:03:25.678Z,2.10
2019-04-26T09:08:39.163Z,2.10
2019-04-26T09:13:49.871Z,2.37
2019-04-26T09:18:59.439Z,1.83
2019-04-26T09:24:10.190Z,2.58
2019-04-26T09:29:30.527Z,2.47
2019-04-26T09:34:36.623Z,2.63
2019-04-26T09:39:43.411Z,1.67
2019-04-26T09:44:57.037Z,1.95
2019-04-26T09:50:11.346Z,2.27
2019-04-26T09:55:17.803Z,3.17
2019-04-26T10:00:27.851Z,2.40
2019-04-26T10:05:34.030Z,2.90
2019-04-26T10:10:39.772Z,2.50
2019-04-26T10:15:58.057Z,3.37
2019-04-26T10:21:01.475Z,2.93
2019-04-26T10:26:07.296Z,2.70
2019-04-26T10:31:13.537Z,2.87
2019-04-26T10:36:21.215Z,2.73
2019-04-26T10:41:33.663Z,3.27
2019-04-26T10:46:34.394Z,3.10
2019-04-26T10:51:45.330Z,3.20
2019-04-26T10:56:55.250Z,3.70
2019-04-26T11:02:00.781Z,3.33
2019-04-26T11:07:06.553Z,2.73
2019-04-26T11:12:16.248Z,4.37
2019-04-26T11:17:21.920Z,3.57
2019-04-26T11:22:29.354Z,2.50
2019-04-26T11:27:34.435Z,2.37
2019-04-26T11:32:40.220Z,2.23
2019-04-26T11:37:50.504Z,2.90
2019-04-26T11:42:54.141Z,3.30
2019-04-26T11:47:59.655Z,2.37
2019-04-26T11:53:06.142Z,2.83
2019-04-26T11:58:12.571Z,2.73
2019-04-26T12:03:21.151Z,3.17
2019-04-26T12:08:32.502Z,2.23
2019-04-26T12:13:38.121Z,2.60
2019-04-26T12:18:44.093Z,2.15
2019-04-26T12:23:51.278Z,2.50
2019-04-26T12:28:58.469Z,2.63
2019-04-26T12:34:04.121Z,2.30
2019-04-26T12:39:11.864Z,2.47
2019-04-26T12:44:17.384Z,2.33
2019-04-26T12:49:24.271Z,1.80
2019-04-26T12:54:30.374Z,2.17
2019-04-26T12:59:43.904Z,2.40
2019-04-26T13:04:44.528Z,2.93
2019-04-26T13:10:01.016Z,2.95
2019-04-26T13:15:32.430Z,2.72
2019-04-26T13:20:39.183Z,2.33
2019-04-26T13:25:44.781Z,2.00
2019-04-26T13:30:50.297Z,2.50
2019-04-26T13:36:02.855Z,1.60
2019-04-26T13:41:04.629Z,2.00
2019-04-26T13:46:19.003Z,2.30
2019-04-26T13:51:25.715Z,3.20
2019-04-26T13:56:32.099Z,2.90
2019-04-26T14:01:38.344Z,2.50
2019-04-26T14:06:43.836Z,2.50
2019-04-26T14:11:49.603Z,2.23
2019-04-26T14:16:55.764Z,2.92
2019-04-26T14:22:03.209Z,3.60
2019-04-26T14:27:15.300Z,2.80
2019-04-26T14:32:23.382Z,4.00
2019-04-26T14:37:29.524Z,3.17
2019-04-26T14:42:42.193Z,3.57
2019-04-26T14:47:47.654Z,3.15
2019-04-26T14:52:49.796Z,4.60
2019-04-26T14:57:56.864Z,4.03
2019-04-26T15:03:12.301Z,3.63
2019-04-26T15:08:18.021Z,3.80
2019-04-26T15:13:23.705Z,3.60
2019-04-26T15:18:33.348Z,3.50
2019-04-26T15:23:37.169Z,3.77
2019-04-26T15:28:43.679Z,3.07
2019-04-26T15:33:50.179Z,2.75
2019-04-26T15:38:56.475Z,2.97
2019-04-26T15:44:11.363Z,2.72
2019-04-26T15:49:29.796Z,2.30
2019-04-26T15:54:34.823Z,2.40
2019-04-26T15:59:40.264Z,2.20
2019-04-26T16:04:47.444Z,1.50
2019-04-26T16:09:53.854Z,2.10
2019-04-26T16:14:59.898Z,2.10
2019-04-26T16:20:07.321Z,1.57
2019-04-26T16:25:12.982Z,1.67
2019-04-26T16:30:28.401Z,1.83
2019-04-26T16:35:35.910Z,1.23
2019-04-26T16:40:47.562Z,1.30
2019-04-26T16:45:48.805Z,1.07
2019-04-26T16:50:54.512Z,1.17
2019-04-26T16:56:00.073Z,0.97
2019-04-26T17:01:10.123Z,0.80
2019-04-26T17:06:14.567Z,1.50
2019-04-26T17:11:20.445Z,1.17
2019-04-26T17:16:29.607Z,1.77
2019-04-26T17:21:38.159Z,1.50
2019-04-26T17:26:50.127Z,2.92
2019-04-26T17:31:55.813Z,3.27
2019-04-26T17:37:09.382Z,3.45
2019-04-26T17:42:10.955Z,4.93
2019-04-26T17:47:16.445Z,5.53
2019-04-26T17:52:25.016Z,6.33
2019-04-26T17:57:34.712Z,6.07
2019-04-26T18:02:42.168Z,6.53
2019-04-26T18:07:56.256Z,6.33
2019-04-26T18:12:54.118Z,6.87
2019-04-26T18:18:09.703Z,6.27
2019-04-26T18:23:18.574Z,6.43
2019-04-26T18:28:25.089Z,7.60
2019-04-26T18:33:32.877Z,6.40
2019-04-26T18:38:38.341Z,5.20
2019-04-26T18:43:43.743Z,6.00
2019-04-26T18:48:49.238Z,5.50
2019-04-26T18:54:05.026Z,5.70
2019-04-26T18:59:13.488Z,6.90
2019-04-26T19:04:19.025Z,5.47
2019-04-26T19:09:28.196Z,4.83
2019-04-26T19:14:49.586Z,5.70
2019-04-26T19:20:03.136Z,4.77
2019-04-26T19:25:18.937Z,4.67
2019-04-26T19:30:17.169Z,4.30
2019-04-26T19:35:22.890Z,4.57
2019-04-26T19:40:28.458Z,4.57
2019-04-26T19:45:46.137Z,3.57
2019-04-26T19:50:57.244Z,5.12
2019-04-26T19:56:11.167Z,5.53
2019-04-26T20:01:20.733Z,3.90
2019-04-26T20:06:26.718Z,4.70
2019-04-26T20:11:31.904Z,4.30
2019-04-26T20:16:40.751Z,4.00
2019-04-26T20:21:49.625Z,4.67
2019-04-26T20:26:54.381Z,5.08
2019-04-26T20:32:07.481Z,5.20
2019-04-26T20:37:16.159Z,4.20
2019-04-26T20:42:22.346Z,3.47
2019-04-26T20:47:27.996Z,2.60
2019-04-26T20:52:33.735Z,3.20
2019-04-26T20:57:42.057Z,3.73
2019-04-26T21:02:46.595Z,3.87
2019-04-26T21:07:52.403Z,4.05
2019-04-26T21:12:57.893Z,2.57
2019-04-26T21:18:04.246Z,2.97
2019-04-26T21:23:10.294Z,2.77
2019-04-26T21:28:29.072Z,2.93
2019-04-26T21:33:42.938Z,3.20
2019-04-26T21:38:53.014Z,3.37
2019-04-26T21:43:59.061Z,4.13
2019-04-26T21:49:04.524Z,6.40
2019-04-26T21:54:10.257Z,4.93
2019-04-26T21:59:16.055Z,3.30
2019-04-26T22:04:22.770Z,2.87
2019-04-26T22:09:48.238Z,2.77
2019-04-26T22:15:03.487Z,3.50
2019-04-26T22:20:19.156Z,3.50
2019-04-26T22:25:26.343Z,3.47
2019-04-26T22:30:33.132Z,4.20
2019-04-26T22:35:38.821Z,4.20
2019-04-26T22:40:44.221Z,3.80
2019-04-26T22:45:54.223Z,3.02
2019-04-26T22:50:59.897Z,3.00
2019-04-26T22:56:05.634Z,2.83
2019-04-26T23:01:11.337Z,3.30
2019-04-26T23:06:17.097Z,3.50
2019-04-26T23:11:23.165Z,2.73
2019-04-26T23:16:44.324Z,3.90
2019-04-26T23:21:52.870Z,3.08
2019-04-26T23:26:55.562Z,4.20
2019-04-26T23:32:01.063Z,2.57
2019-04-26T23:37:06.583Z,2.73
2019-04-26T23:42:12.218Z,3.43
2019-04-26T23:47:23.004Z,2.90
2019-04-26T23:52:25.968Z,4.07
2019-04-26T23:57:34.734Z,4.23
